createdAt,value
2019-05-22T00:01:27.772Z,13.30
2019-05-22T00:03:31.158Z,13.40
2019-05-22T00:05:34.100Z,13.40
2019-05-22T00:07:35.864Z,13.30
2019-05-22T00:09:38.934Z,13.40
2019-05-22T00:11:42.006Z,13.40
2019-05-22T00:13:46.045Z,13.40
2019-05-22T00:15:49.103Z,13.40
2019-05-22T00:17:50.554Z,13.30
2019-05-22T00:19:51.974Z,13.30
2019-05-22T00:22:01.110Z,13.20
2019-05-22T00:24:04.580Z,13.20
2019-05-22T00:26:06.885Z,13.30
2019-05-22T00:28:09.856Z,13.20
2019-05-22T00:30:13.748Z,13.20
2019-05-22T00:32:17.126Z,13.20
2019-05-22T00:34:18.682Z,13.10
2019-05-22T00:36:20.063Z,13.10
2019-05-22T00:38:22.858Z,13.10
2019-05-22T00:40:27.876Z,13.20
2019-05-22T00:42:31.260Z,13.10
2019-05-22T00:44:34.416Z,13.10
2019-05-22T00:46:39.473Z,13.10
2019-05-22T00:48:45.523Z,13.00
2019-05-22T00:50:48.892Z,13.00
2019-05-22T00:53:01.473Z,13.10
2019-05-22T00:55:05.118Z,13.00
2019-05-22T00:57:24.263Z,13.00
2019-05-22T00:59:33.369Z,13.00
2019-05-22T01:01:47.085Z,13.00
2019-05-22T01:03:49.778Z,12.90
2019-05-22T01:05:51.198Z,12.90
2019-05-22T01:07:52.469Z,12.90
2019-05-22T01:09:58.398Z,12.90
2019-05-22T01:12:01.446Z,12.90
2019-05-22T01:14:04.098Z,12.90
2019-05-22T01:16:07.151Z,12.90
2019-05-22T01:18:11.436Z,13.00
2019-05-22T01:20:15.412Z,13.10
2019-05-22T01:22:17.166Z,13.10
2019-05-22T01:24:18.908Z,13.00
2019-05-22T01:26:21.573Z,12.90
2019-05-22T01:28:25.239Z,12.80
2019-05-22T01:30:37.298Z,12.80
2019-05-22T01:32:50.715Z,12.70
2019-05-22T01:34:52.085Z,12.70
2019-05-22T01:36:55.162Z,12.70
2019-05-22T01:38:59.858Z,12.80
2019-05-22T01:41:04.848Z,12.80
2019-05-22T01:43:08.105Z,12.80
2019-05-22T01:45:10.977Z,12.80
2019-05-22T01:47:15.942Z,12.90
2019-05-22T01:49:18.094Z,12.90
2019-05-22T01:51:20.150Z,12.80
2019-05-22T01:53:23.697Z,12.80
2019-05-22T01:55:25.723Z,12.70
2019-05-22T01:57:28.757Z,12.60
2019-05-22T01:59:29.993Z,12.60
2019-05-22T02:01:31.722Z,12.60
2019-05-22T02:03:35.992Z,12.50
2019-05-22T02:05:39.633Z,12.50
2019-05-22T02:07:41.310Z,12.40
2019-05-22T02:09:43.613Z,12.40
2019-05-22T02:11:48.579Z,12.40
2019-05-22T02:13:53.512Z,12.40
2019-05-22T02:15:55.083Z,12.50
2019-05-22T02:17:58.737Z,12.50
2019-05-22T02:20:00.892Z,12.40
2019-05-22T02:22:04.213Z,12.40
2019-05-22T02:24:06.665Z,12.50
2019-05-22T02:26:09.974Z,12.50
2019-05-22T02:28:12.654Z,12.40
2019-05-22T02:30:16.992Z,12.40
2019-05-22T02:32:19.776Z,12.30
2019-05-22T02:34:20.923Z,12.30
2019-05-22T02:36:24.161Z,12.30
2019-05-22T02:38:38.805Z,12.40
2019-05-22T02:40:42.831Z,12.40
2019-05-22T02:42:44.396Z,12.50
2019-05-22T02:44:46.720Z,12.50
2019-05-22T02:46:48.781Z,12.40
2019-05-22T02:48:51.458Z,12.40
2019-05-22T02:50:53.304Z,12.30
2019-05-22T02:52:55.085Z,12.40
2019-05-22T02:54:56.554Z,12.30
2019-05-22T02:56:58.425Z,12.40
2019-05-22T02:59:00.274Z,12.30
2019-05-22T03:01:02.443Z,12.40
2019-05-22T03:03:03.688Z,12.30
2019-05-22T03:05:06.769Z,12.40
2019-05-22T03:07:09.227Z,12.20
2019-05-22T03:09:19.937Z,12.20
2019-05-22T03:11:22.463Z,12.30
2019-05-22T03:13:26.211Z,12.30
2019-05-22T03:15:27.781Z,12.20
2019-05-22T03:17:33.151Z,12.30
2019-05-22T03:19:36.037Z,12.30
2019-05-22T03:21:38.515Z,12.20
2019-05-22T03:23:39.839Z,12.20
2019-05-22T03:25:41.356Z,12.30
2019-05-22T03:27:46.342Z,12.20
2019-05-22T03:29:51.079Z,12.20
2019-05-22T03:31:53.252Z,12.20
2019-05-22T03:33:54.995Z,12.20
2019-05-22T03:36:06.919Z,12.30
2019-05-22T03:38:08.875Z,12.20
2019-05-22T03:40:10.401Z,12.20
2019-05-22T03:42:13.366Z,12.20
2019-05-22T03:44:15.542Z,12.20
2019-05-22T03:46:21.378Z,12.10
2019-05-22T03:48:23.435Z,12.10
2019-05-22T03:50:27.687Z,12.10
2019-05-22T03:52:29.974Z,12.10
2019-05-22T03:54:31.621Z,12.10
2019-05-22T03:56:35.587Z,12.10
2019-05-22T03:58:36.856Z,12.10
2019-05-22T04:00:43.009Z,12.10
2019-05-22T04:02:42.678Z,12.20
2019-05-22T04:04:44.778Z,12.10
2019-05-22T04:06:47.570Z,12.20
2019-05-22T04:08:49.406Z,12.20
2019-05-22T04:11:03.005Z,12.20
2019-05-22T04:13:06.173Z,12.20
2019-05-22T04:15:09.930Z,12.20
2019-05-22T04:17:12.294Z,12.10
2019-05-22T04:19:15.074Z,12.20
2019-05-22T04:21:16.405Z,12.20
2019-05-22T04:23:17.730Z,12.20
2019-05-22T04:25:18.911Z,12.20
2019-05-22T04:27:20.852Z,12.30
2019-05-22T04:29:22.806Z,12.40
2019-05-22T04:31:32.559Z,12.30
2019-05-22T04:33:34.267Z,12.40
2019-05-22T04:35:36.519Z,12.30
2019-05-22T04:37:38.885Z,12.30
2019-05-22T04:39:40.858Z,12.40
2019-05-22T04:41:42.743Z,12.40
2019-05-22T04:43:44.789Z,12.40
2019-05-22T04:45:46.035Z,12.40
2019-05-22T04:47:55.361Z,12.20
2019-05-22T04:50:06.915Z,12.20
2019-05-22T04:51:59.787Z,12.20
2019-05-22T04:54:01.378Z,12.10
2019-05-22T04:56:02.765Z,12.10
2019-05-22T04:58:05.901Z,12.10
2019-05-22T05:00:08.373Z,12.10
2019-05-22T05:02:09.854Z,12.10
2019-05-22T05:04:11.220Z,12.20
2019-05-22T05:06:12.475Z,12.10
2019-05-22T05:08:14.528Z,12.10
2019-05-22T05:10:15.791Z,12.10
2019-05-22T05:12:17.423Z,12.00
2019-05-22T05:14:18.592Z,12.00
2019-05-22T05:16:19.836Z,11.90
2019-05-22T05:18:21.404Z,11.90
2019-05-22T05:20:23.217Z,11.80
2019-05-22T05:22:32.585Z,11.90
2019-05-22T05:24:33.844Z,12.00
2019-05-22T05:26:35.399Z,12.00
2019-05-22T05:28:37.454Z,12.00
2019-05-22T05:30:38.741Z,11.90
2019-05-22T05:32:40.418Z,11.90
2019-05-22T05:34:45.533Z,11.90
2019-05-22T05:36:46.968Z,11.90
2019-05-22T05:38:48.207Z,11.90
2019-05-22T05:40:49.869Z,11.90
2019-05-22T05:42:51.931Z,11.80
2019-05-22T05:44:53.196Z,11.80
2019-05-22T05:46:54.850Z,11.80
2019-05-22T05:48:57.084Z,11.80
2019-05-22T05:51:06.609Z,11.80
2019-05-22T05:53:13.793Z,11.90
2019-05-22T05:55:15.274Z,11.80
2019-05-22T05:57:33.474Z,11.80
2019-05-22T05:59:34.638Z,11.70
2019-05-22T06:01:38.626Z,11.80
2019-05-22T06:03:40.746Z,11.70
2019-05-22T06:05:42.479Z,11.80
2019-05-22T06:07:43.623Z,11.70
2019-05-22T06:09:44.889Z,11.80
2019-05-22T06:11:46.169Z,11.80
2019-05-22T06:13:47.419Z,11.80
2019-05-22T06:15:53.799Z,11.80
2019-05-22T06:17:56.848Z,11.80
2019-05-22T06:20:06.750Z,11.80
2019-05-22T06:22:09.407Z,11.70
2019-05-22T06:24:13.710Z,11.70
2019-05-22T06:26:20.310Z,11.70
2019-05-22T06:28:22.562Z,11.80
2019-05-22T06:30:27.167Z,11.80
2019-05-22T06:32:36.794Z,11.80
2019-05-22T06:34:38.445Z,11.70
2019-05-22T06:36:41.711Z,11.70
2019-05-22T06:38:56.793Z,11.70
2019-05-22T06:40:58.068Z,11.90
2019-05-22T06:43:19.862Z,11.90
2019-05-22T06:45:21.189Z,12.00
2019-05-22T06:47:22.658Z,12.00
2019-05-22T06:49:32.400Z,12.00
2019-05-22T06:51:33.550Z,12.10
2019-05-22T06:53:34.712Z,12.10
2019-05-22T06:55:35.844Z,12.30
2019-05-22T06:57:37.097Z,12.30
2019-05-22T06:59:38.349Z,12.20
2019-05-22T07:01:39.611Z,11.90
2019-05-22T07:03:40.758Z,11.90
2019-05-22T07:05:42.915Z,11.90
2019-05-22T07:07:44.769Z,11.80
2019-05-22T07:09:46.273Z,11.80
2019-05-22T07:11:48.210Z,11.90
2019-05-22T07:13:49.572Z,11.60
2019-05-22T07:15:51.590Z,11.80
2019-05-22T07:17:52.769Z,11.90
2019-05-22T07:19:55.018Z,11.90
2019-05-22T07:21:56.953Z,11.90
2019-05-22T07:23:58.090Z,11.90
2019-05-22T07:26:00.234Z,11.70
2019-05-22T07:28:01.553Z,11.70
2019-05-22T07:30:04.057Z,11.60
2019-05-22T07:32:05.614Z,11.60
2019-05-22T07:34:07.261Z,11.60
2019-05-22T07:36:13.596Z,11.60
2019-05-22T07:38:12.750Z,11.60
2019-05-22T07:40:14.294Z,11.50
2019-05-22T07:42:15.450Z,11.70
2019-05-22T07:44:16.882Z,11.80
2019-05-22T07:46:18.351Z,11.80
2019-05-22T07:48:21.689Z,12.00
2019-05-22T07:50:22.932Z,12.00
2019-05-22T07:52:25.036Z,11.90
2019-05-22T07:54:26.293Z,11.80
2019-05-22T07:56:27.436Z,11.80
2019-05-22T07:58:28.958Z,11.60
2019-05-22T08:00:30.112Z,11.60
2019-05-22T08:02:39.476Z,11.70
2019-05-22T08:04:41.053Z,11.60
2019-05-22T08:06:42.210Z,11.70
2019-05-22T08:08:44.699Z,11.70
2019-05-22T08:10:46.548Z,11.80
2019-05-22T08:12:48.712Z,11.80
2019-05-22T08:14:49.978Z,11.80
2019-05-22T08:16:52.046Z,11.80
2019-05-22T08:18:53.310Z,12.00
2019-05-22T08:20:54.706Z,11.90
2019-05-22T08:22:57.658Z,12.00
2019-05-22T08:24:59.150Z,12.00
2019-05-22T08:27:00.303Z,12.00
2019-05-22T08:29:03.718Z,12.00
2019-05-22T08:31:07.126Z,12.30
2019-05-22T08:33:11.165Z,12.10
2019-05-22T08:35:12.419Z,12.00
2019-05-22T08:37:18.556Z,12.00
2019-05-22T08:39:19.805Z,12.10
2019-05-22T08:41:23.923Z,12.00
2019-05-22T08:43:25.280Z,12.00
2019-05-22T08:45:27.243Z,12.30
2019-05-22T08:47:28.591Z,12.30
2019-05-22T08:49:29.741Z,12.30
2019-05-22T08:51:30.898Z,12.30
2019-05-22T08:53:46.163Z,12.40
2019-05-22T08:55:36.684Z,12.50
2019-05-22T08:57:42.292Z,12.50
2019-05-22T08:59:43.834Z,12.50
2019-05-22T09:01:45.595Z,12.60
2019-05-22T09:03:46.758Z,12.60
2019-05-22T09:05:47.918Z,12.60
2019-05-22T09:07:49.587Z,12.60
2019-05-22T09:09:51.134Z,12.80
2019-05-22T09:11:52.280Z,12.70
2019-05-22T09:13:53.669Z,12.90
2019-05-22T09:15:55.647Z,13.00
2019-05-22T09:17:56.897Z,13.00
2019-05-22T09:19:58.798Z,12.90
2019-05-22T09:22:00.293Z,13.00
2019-05-22T09:24:02.259Z,13.10
2019-05-22T09:26:03.909Z,13.20
2019-05-22T09:28:05.063Z,13.20
2019-05-22T09:30:07.257Z,13.30
2019-05-22T09:32:08.690Z,13.40
2019-05-22T09:34:09.990Z,13.50
2019-05-22T09:36:11.147Z,13.30
2019-05-22T09:38:12.397Z,13.20
2019-05-22T09:40:13.747Z,13.00
2019-05-22T09:42:15.087Z,12.80
2019-05-22T09:44:16.345Z,12.70
2019-05-22T09:46:18.098Z,12.60
2019-05-22T09:48:19.853Z,12.60
2019-05-22T09:50:22.012Z,12.70
2019-05-22T09:52:23.441Z,12.80
2019-05-22T09:54:24.605Z,12.90
2019-05-22T09:56:27.486Z,12.90
2019-05-22T09:58:28.733Z,12.90
2019-05-22T10:00:31.193Z,12.90
2019-05-22T10:02:32.768Z,13.00
2019-05-22T10:04:35.301Z,13.00
2019-05-22T10:06:36.651Z,13.10
2019-05-22T10:08:37.806Z,13.00
2019-05-22T10:10:39.462Z,13.00
2019-05-22T10:12:40.800Z,13.30
2019-05-22T10:14:42.434Z,13.50
2019-05-22T10:16:43.917Z,13.60
2019-05-22T10:18:45.178Z,14.00
2019-05-22T10:20:46.348Z,14.00
2019-05-22T10:22:48.657Z,14.10
2019-05-22T10:24:50.867Z,14.00
2019-05-22T10:26:53.702Z,14.20
2019-05-22T10:28:55.325Z,14.40
2019-05-22T10:30:57.676Z,14.60
2019-05-22T10:32:59.566Z,14.80
2019-05-22T10:35:00.805Z,14.90
2019-05-22T10:37:02.050Z,14.70
2019-05-22T10:39:04.378Z,14.80
2019-05-22T10:41:05.803Z,14.90
2019-05-22T10:43:07.615Z,14.90
2019-05-22T10:45:08.773Z,14.20
2019-05-22T10:47:10.076Z,14.00
2019-05-22T10:49:11.222Z,13.80
2019-05-22T10:51:12.437Z,13.70
2019-05-22T10:53:13.707Z,13.60
2019-05-22T10:55:15.534Z,13.60
2019-05-22T10:57:16.715Z,13.40
2019-05-22T10:59:17.884Z,13.30
2019-05-22T11:01:19.045Z,13.50
2019-05-22T11:03:21.519Z,13.60
2019-05-22T11:05:23.104Z,13.50
2019-05-22T11:07:25.451Z,13.60
2019-05-22T11:09:27.412Z,13.60
2019-05-22T11:11:28.750Z,13.80
2019-05-22T11:13:29.898Z,14.10
2019-05-22T11:15:31.274Z,14.10
2019-05-22T11:17:33.076Z,14.10
2019-05-22T11:19:34.521Z,13.90
2019-05-22T11:21:35.785Z,13.90
2019-05-22T11:23:51.398Z,13.90
2019-05-22T11:25:40.682Z,14.10
2019-05-22T11:27:42.773Z,14.10
2019-05-22T11:29:44.366Z,14.10
2019-05-22T11:31:45.789Z,14.30
2019-05-22T11:33:48.272Z,14.50
2019-05-22T11:35:49.493Z,14.50
2019-05-22T11:37:51.150Z,14.40
2019-05-22T11:39:53.449Z,14.40
2019-05-22T11:41:54.632Z,14.40
2019-05-22T11:43:55.787Z,14.40
2019-05-22T11:45:57.333Z,14.50
2019-05-22T11:47:58.486Z,14.60
2019-05-22T11:49:59.746Z,14.60
2019-05-22T11:52:01.119Z,14.60
2019-05-22T11:54:09.349Z,14.60
2019-05-22T11:56:05.421Z,14.90
2019-05-22T11:58:09.368Z,15.00
2019-05-22T12:00:11.305Z,15.30
2019-05-22T12:02:14.382Z,15.30
2019-05-22T12:04:16.380Z,15.70
2019-05-22T12:06:17.544Z,15.50
2019-05-22T12:08:18.783Z,15.30
2019-05-22T12:10:20.510Z,14.90
2019-05-22T12:12:22.086Z,15.20
2019-05-22T12:14:23.379Z,15.50
2019-05-22T12:16:24.937Z,15.70
2019-05-22T12:18:26.490Z,15.10
2019-05-22T12:20:28.586Z,15.10
2019-05-22T12:22:30.165Z,15.80
2019-05-22T12:24:36.906Z,15.80
2019-05-22T12:26:35.439Z,16.30
2019-05-22T12:28:36.595Z,16.60
2019-05-22T12:30:38.335Z,16.90
2019-05-22T12:32:40.243Z,16.70
2019-05-22T12:34:42.982Z,16.60
2019-05-22T12:36:44.247Z,16.30
2019-05-22T12:38:45.970Z,16.60
2019-05-22T12:40:47.339Z,16.80
2019-05-22T12:42:50.596Z,17.30
2019-05-22T12:44:51.758Z,17.60
2019-05-22T12:46:53.041Z,17.50
2019-05-22T12:48:54.390Z,17.70
2019-05-22T12:50:55.966Z,17.60
2019-05-22T12:52:59.637Z,18.10
2019-05-22T12:55:01.648Z,17.70
2019-05-22T12:57:04.830Z,17.00
2019-05-22T12:59:06.797Z,16.90
2019-05-22T13:01:08.251Z,17.20
2019-05-22T13:03:11.558Z,17.30
2019-05-22T13:05:14.440Z,17.20
2019-05-22T13:07:16.602Z,16.90
2019-05-22T13:09:18.044Z,17.00
2019-05-22T13:11:19.200Z,17.00
2019-05-22T13:13:21.381Z,17.40
2019-05-22T13:15:23.534Z,17.80
2019-05-22T13:17:26.453Z,18.50
2019-05-22T13:19:30.721Z,18.90
2019-05-22T13:21:33.293Z,19.00
2019-05-22T13:23:37.447Z,18.70
2019-05-22T13:25:40.428Z,18.40
2019-05-22T13:27:43.213Z,18.80
2019-05-22T13:29:45.250Z,19.30
2019-05-22T13:31:47.706Z,19.20
2019-05-22T13:33:49.562Z,19.30
2019-05-22T13:35:51.352Z,19.10
2019-05-22T13:37:54.248Z,19.30
2019-05-22T13:39:55.387Z,19.60
2019-05-22T13:41:56.538Z,20.00
2019-05-22T13:43:57.789Z,20.50
2019-05-22T13:45:59.422Z,21.00
2019-05-22T13:48:00.622Z,21.00
2019-05-22T13:50:02.758Z,20.80
2019-05-22T13:52:04.518Z,21.00
2019-05-22T13:54:06.219Z,21.50
2019-05-22T13:56:08.655Z,22.10
2019-05-22T13:58:10.156Z,22.50
2019-05-22T14:00:13.453Z,23.10
2019-05-22T14:02:14.703Z,22.20
2019-05-22T14:04:16.094Z,21.40
2019-05-22T14:06:18.274Z,21.20
2019-05-22T14:08:20.968Z,21.60
2019-05-22T14:10:22.863Z,21.50
2019-05-22T14:12:25.218Z,21.70
2019-05-22T14:14:26.346Z,21.80
2019-05-22T14:16:28.155Z,22.30
2019-05-22T14:18:29.409Z,22.80
2019-05-22T14:20:30.554Z,22.40
2019-05-22T14:22:31.729Z,22.40
2019-05-22T14:24:34.171Z,22.90
2019-05-22T14:26:35.816Z,23.30
2019-05-22T14:28:37.178Z,23.50
2019-05-22T14:30:38.779Z,22.80
2019-05-22T14:32:39.961Z,22.30
2019-05-22T14:34:41.615Z,21.60
2019-05-22T14:36:42.771Z,21.60
2019-05-22T14:38:45.642Z,22.20
2019-05-22T14:40:47.163Z,22.50
2019-05-22T14:42:48.436Z,22.60
2019-05-22T14:44:49.692Z,22.90
2019-05-22T14:46:53.355Z,23.80
2019-05-22T14:48:58.382Z,24.60
2019-05-22T14:51:03.283Z,24.80
2019-05-22T14:53:04.978Z,25.30
